sensor_id;sensor_type;location;lat;lon;timestamp;temperature;humidity
18365;DHT22;9309;52.126;11.616;2022-09-13T00:00:34;14.90;76.90
18365;DHT22;9309;52.126;11.616;2022-09-13T00:03:01;14.90;76.90
18365;DHT22;9309;52.126;11.616;2022-09-13T00:05:29;14.90;76.80
18365;DHT22;9309;52.126;11.616;2022-09-13T00:07:56;14.90;76.70
18365;DHT22;9309;52.126;11.616;2022-09-13T00:10:24;14.80;76.90
18365;DHT22;9309;52.126;11.616;2022-09-13T00:12:52;14.80;77.00
18365;DHT22;9309;52.126;11.616;2022-09-13T00:15:20;14.70;76.90
18365;DHT22;9309;52.126;11.616;2022-09-13T00:17:48;14.80;77.00
18365;DHT22;9309;52.126;11.616;2022-09-13T00:20:15;14.60;77.40
18365;DHT22;9309;52.126;11.616;2022-09-13T00:22:42;14.60;77.60
18365;DHT22;9309;52.126;11.616;2022-09-13T00:25:09;14.70;77.20
18365;DHT22;9309;52.126;11.616;2022-09-13T00:27:36;14.70;76.80
18365;DHT22;9309;52.126;11.616;2022-09-13T00:30:03;14.70;76.80
18365;DHT22;9309;52.126;11.616;2022-09-13T00:32:31;14.70;76.80
18365;DHT22;9309;52.126;11.616;2022-09-13T00:35:00;14.80;76.90
18365;DHT22;9309;52.126;11.616;2022-09-13T00:37:27;14.70;76.90
18365;DHT22;9309;52.126;11.616;2022-09-13T00:39:54;14.60;77.20
18365;DHT22;9309;52.126;11.616;2022-09-13T00:42:24;14.60;77.20
18365;DHT22;9309;52.126;11.616;2022-09-13T00:44:55;14.60;77.10
18365;DHT22;9309;52.126;11.616;2022-09-13T00:47:27;14.60;77.20
18365;DHT22;9309;52.126;11.616;2022-09-13T00:50:04;14.50;77.50
18365;DHT22;9309;52.126;11.616;2022-09-13T00:52:33;14.60;77.30
18365;DHT22;9309;52.126;11.616;2022-09-13T00:55:06;14.50;77.30
18365;DHT22;9309;52.126;11.616;2022-09-13T00:57:35;14.50;77.30
18365;DHT22;9309;52.126;11.616;2022-09-13T01:00:05;14.60;77.20
18365;DHT22;9309;52.126;11.616;2022-09-13T01:02:36;14.60;77.10
18365;DHT22;9309;52.126;11.616;2022-09-13T01:05:06;14.60;77.30
18365;DHT22;9309;52.126;11.616;2022-09-13T01:07:33;14.40;78.10
18365;DHT22;9309;52.126;11.616;2022-09-13T01:10:02;14.30;78.50
18365;DHT22;9309;52.126;11.616;2022-09-13T01:12:36;14.50;77.90
18365;DHT22;9309;52.126;11.616;2022-09-13T01:15:06;14.50;77.50
18365;DHT22;9309;52.126;11.616;2022-09-13T01:17:34;14.30;78.50
18365;DHT22;9309;52.126;11.616;2022-09-13T01:20:06;14.00;79.50
18365;DHT22;9309;52.126;11.616;2022-09-13T01:22:53;13.90;80.40
18365;DHT22;9309;52.126;11.616;2022-09-13T01:25:44;14.00;79.80
18365;DHT22;9309;52.126;11.616;2022-09-13T01:28:36;14.00;80.00
18365;DHT22;9309;52.126;11.616;2022-09-13T01:31:14;14.00;79.90
18365;DHT22;9309;52.126;11.616;2022-09-13T01:33:55;14.10;79.70
18365;DHT22;9309;52.126;11.616;2022-09-13T01:36:42;14.10;79.50
18365;DHT22;9309;52.126;11.616;2022-09-13T01:39:15;14.10;79.20
18365;DHT22;9309;52.126;11.616;2022-09-13T01:41:58;14.20;79.30
18365;DHT22;9309;52.126;11.616;2022-09-13T01:44:38;14.10;79.30
18365;DHT22;9309;52.126;11.616;2022-09-13T01:47:18;14.20;78.80
18365;DHT22;9309;52.126;11.616;2022-09-13T01:49:53;14.20;79.00
18365;DHT22;9309;52.126;11.616;2022-09-13T01:52:31;14.10;79.40
18365;DHT22;9309;52.126;11.616;2022-09-13T01:55:05;14.10;79.60
18365;DHT22;9309;52.126;11.616;2022-09-13T01:57:37;14.20;79.30
18365;DHT22;9309;52.126;11.616;2022-09-13T02:00:08;14.30;78.40
18365;DHT22;9309;52.126;11.616;2022-09-13T02:02:45;14.30;78.30
18365;DHT22;9309;52.126;11.616;2022-09-13T02:05:20;14.30;78.10
18365;DHT22;9309;52.126;11.616;2022-09-13T02:07:54;14.20;78.50
18365;DHT22;9309;52.126;11.616;2022-09-13T02:10:26;14.20;78.50
18365;DHT22;9309;52.126;11.616;2022-09-13T02:12:55;14.20;78.50
18365;DHT22;9309;52.126;11.616;2022-09-13T02:15:28;14.10;78.70
18365;DHT22;9309;52.126;11.616;2022-09-13T02:18:02;14.20;78.30
18365;DHT22;9309;52.126;11.616;2022-09-13T02:20:34;14.30;77.80
18365;DHT22;9309;52.126;11.616;2022-09-13T02:23:06;14.10;78.60
18365;DHT22;9309;52.126;11.616;2022-09-13T02:25:38;14.00;78.70
18365;DHT22;9309;52.126;11.616;2022-09-13T02:28:11;14.10;78.50
18365;DHT22;9309;52.126;11.616;2022-09-13T02:30:47;14.10;78.30
18365;DHT22;9309;52.126;11.616;2022-09-13T02:33:22;14.00;78.60
18365;DHT22;9309;52.126;11.616;2022-09-13T02:35:57;13.90;79.30
18365;DHT22;9309;52.126;11.616;2022-09-13T02:38:30;13.80;79.60
18365;DHT22;9309;52.126;11.616;2022-09-13T02:41:06;13.90;79.50
18365;DHT22;9309;52.126;11.616;2022-09-13T02:43:38;14.00;79.00
18365;DHT22;9309;52.126;11.616;2022-09-13T02:46:19;13.80;79.70
18365;DHT22;9309;52.126;11.616;2022-09-13T02:48:57;13.90;79.30
18365;DHT22;9309;52.126;11.616;2022-09-13T02:51:31;13.80;79.70
18365;DHT22;9309;52.126;11.616;2022-09-13T02:54:06;13.90;79.40
18365;DHT22;9309;52.126;11.616;2022-09-13T02:56:42;13.90;79.20
18365;DHT22;9309;52.126;11.616;2022-09-13T02:59:14;14.00;78.80
18365;DHT22;9309;52.126;11.616;2022-09-13T03:01:44;14.10;78.50
18365;DHT22;9309;52.126;11.616;2022-09-13T03:04:13;14.10;78.10
18365;DHT22;9309;52.126;11.616;2022-09-13T03:06:40;14.10;78.30
18365;DHT22;9309;52.126;11.616;2022-09-13T03:09:08;14.00;78.70
18365;DHT22;9309;52.126;11.616;2022-09-13T03:11:44;14.00;78.50
18365;DHT22;9309;52.126;11.616;2022-09-13T03:14:30;14.10;78.70
18365;DHT22;9309;52.126;11.616;2022-09-13T03:17:10;14.20;77.70
18365;DHT22;9309;52.126;11.616;2022-09-13T03:22:51;14.30;77.60
18365;DHT22;9309;52.126;11.616;2022-09-13T03:25:29;14.30;77.40
18365;DHT22;9309;52.126;11.616;2022-09-13T03:28:02;14.20;77.70
18365;DHT22;9309;52.126;11.616;2022-09-13T03:30:35;14.30;77.30
18365;DHT22;9309;52.126;11.616;2022-09-13T03:33:10;14.30;77.20
18365;DHT22;9309;52.126;11.616;2022-09-13T03:35:49;14.30;77.10
18365;DHT22;9309;52.126;11.616;2022-09-13T03:38:23;14.40;76.90
18365;DHT22;9309;52.126;11.616;2022-09-13T03:40:56;14.40;76.60
18365;DHT22;9309;52.126;11.616;2022-09-13T03:43:30;14.30;77.10
18365;DHT22;9309;52.126;11.616;2022-09-13T03:46:04;14.30;77.00
18365;DHT22;9309;52.126;11.616;2022-09-13T03:48:34;14.30;77.10
18365;DHT22;9309;52.126;11.616;2022-09-13T03:51:03;14.30;77.30
18365;DHT22;9309;52.126;11.616;2022-09-13T03:53:33;14.30;77.10
18365;DHT22;9309;52.126;11.616;2022-09-13T03:56:11;14.30;77.10
18365;DHT22;9309;52.126;11.616;2022-09-13T03:58:38;14.30;77.20
18365;DHT22;9309;52.126;11.616;2022-09-13T04:01:05;14.40;77.20
18365;DHT22;9309;52.126;11.616;2022-09-13T04:03:32;14.50;77.00
18365;DHT22;9309;52.126;11.616;2022-09-13T04:05:59;14.60;76.40
18365;DHT22;9309;52.126;11.616;2022-09-13T04:08:27;14.70;75.60
18365;DHT22;9309;52.126;11.616;2022-09-13T04:10:54;14.70;75.90
18365;DHT22;9309;52.126;11.616;2022-09-13T04:13:21;14.70;76.60
18365;DHT22;9309;52.126;11.616;2022-09-13T04:15:48;14.80;75.90
18365;DHT22;9309;52.126;11.616;2022-09-13T04:18:15;14.80;75.30
18365;DHT22;9309;52.126;11.616;2022-09-13T04:20:42;14.90;75.10
18365;DHT22;9309;52.126;11.616;2022-09-13T04:23:09;14.90;75.30
18365;DHT22;9309;52.126;11.616;2022-09-13T04:25:38;15.00;74.50
18365;DHT22;9309;52.126;11.616;2022-09-13T04:28:06;14.80;76.00
18365;DHT22;9309;52.126;11.616;2022-09-13T04:30:34;14.70;77.30
18365;DHT22;9309;52.126;11.616;2022-09-13T04:33:00;14.80;77.00
18365;DHT22;9309;52.126;11.616;2022-09-13T04:35:27;14.90;76.20
18365;DHT22;9309;52.126;11.616;2022-09-13T04:37:54;15.10;75.00
18365;DHT22;9309;52.126;11.616;2022-09-13T04:40:22;15.00;76.30
18365;DHT22;9309;52.126;11.616;2022-09-13T04:42:51;15.10;77.40
18365;DHT22;9309;52.126;11.616;2022-09-13T04:45:18;15.00;78.40
18365;DHT22;9309;52.126;11.616;2022-09-13T04:47:50;14.80;79.20
18365;DHT22;9309;52.126;11.616;2022-09-13T04:50:17;14.60;81.10
18365;DHT22;9309;52.126;11.616;2022-09-13T04:52:48;14.50;82.40
18365;DHT22;9309;52.126;11.616;2022-09-13T04:55:16;14.40;83.50
18365;DHT22;9309;52.126;11.616;2022-09-13T04:57:43;14.30;84.80
18365;DHT22;9309;52.126;11.616;2022-09-13T05:00:11;14.40;84.90
18365;DHT22;9309;52.126;11.616;2022-09-13T05:02:38;14.30;85.10
18365;DHT22;9309;52.126;11.616;2022-09-13T05:05:05;14.30;86.10
18365;DHT22;9309;52.126;11.616;2022-09-13T05:07:33;14.50;85.20
18365;DHT22;9309;52.126;11.616;2022-09-13T05:10:00;14.60;84.90
18365;DHT22;9309;52.126;11.616;2022-09-13T05:12:27;14.50;85.10
18365;DHT22;9309;52.126;11.616;2022-09-13T05:14:53;14.10;86.90
18365;DHT22;9309;52.126;11.616;2022-09-13T05:17:22;13.90;89.50
18365;DHT22;9309;52.126;11.616;2022-09-13T05:19:48;13.80;90.50
18365;DHT22;9309;52.126;11.616;2022-09-13T05:22:15;13.70;90.80
18365;DHT22;9309;52.126;11.616;2022-09-13T05:24:42;13.80;91.20
18365;DHT22;9309;52.126;11.616;2022-09-13T05:27:09;14.00;90.80
18365;DHT22;9309;52.126;11.616;2022-09-13T05:29:36;14.10;90.20
18365;DHT22;9309;52.126;11.616;2022-09-13T05:32:03;14.40;89.70
18365;DHT22;9309;52.126;11.616;2022-09-13T05:34:32;14.30;90.20
18365;DHT22;9309;52.126;11.616;2022-09-13T05:36:58;14.20;91.30
18365;DHT22;9309;52.126;11.616;2022-09-13T05:39:25;14.10;92.20
18365;DHT22;9309;52.126;11.616;2022-09-13T05:41:52;14.60;91.00
18365;DHT22;9309;52.126;11.616;2022-09-13T05:44:19;14.80;89.70
18365;DHT22;9309;52.126;11.616;2022-09-13T05:46:46;14.90;89.30
18365;DHT22;9309;52.126;11.616;2022-09-13T05:49:14;14.70;89.90
18365;DHT22;9309;52.126;11.616;2022-09-13T05:51:42;14.80;90.00
18365;DHT22;9309;52.126;11.616;2022-09-13T05:54:11;14.90;90.10
18365;DHT22;9309;52.126;11.616;2022-09-13T05:56:38;14.80;89.70
18365;DHT22;9309;52.126;11.616;2022-09-13T05:59:05;14.90;90.10
18365;DHT22;9309;52.126;11.616;2022-09-13T06:01:33;15.00;89.80
18365;DHT22;9309;52.126;11.616;2022-09-13T06:04:00;15.00;88.80
18365;DHT22;9309;52.126;11.616;2022-09-13T06:06:27;14.80;90.70
18365;DHT22;9309;52.126;11.616;2022-09-13T06:08:56;14.80;91.80
18365;DHT22;9309;52.126;11.616;2022-09-13T06:11:24;15.00;91.50
18365;DHT22;9309;52.126;11.616;2022-09-13T06:13:51;15.30;90.00
18365;DHT22;9309;52.126;11.616;2022-09-13T06:16:19;15.40;88.80
18365;DHT22;9309;52.126;11.616;2022-09-13T06:18:46;15.10;89.90
18365;DHT22;9309;52.126;11.616;2022-09-13T06:21:16;15.20;89.80
18365;DHT22;9309;52.126;11.616;2022-09-13T06:23:44;15.30;89.80
18365;DHT22;9309;52.126;11.616;2022-09-13T06:26:14;15.20;90.40
18365;DHT22;9309;52.126;11.616;2022-09-13T06:28:41;15.20;90.50
18365;DHT22;9309;52.126;11.616;2022-09-13T06:31:10;15.50;89.10
18365;DHT22;9309;52.126;11.616;2022-09-13T06:33:39;15.60;89.00
18365;DHT22;9309;52.126;11.616;2022-09-13T06:36:07;15.90;86.80
18365;DHT22;9309;52.126;11.616;2022-09-13T06:38:35;16.10;86.30
18365;DHT22;9309;52.126;11.616;2022-09-13T06:41:03;16.20;85.50
18365;DHT22;9309;52.126;11.616;2022-09-13T06:43:32;16.20;85.60
18365;DHT22;9309;52.126;11.616;2022-09-13T06:46:01;16.20;84.60
18365;DHT22;9309;52.126;11.616;2022-09-13T06:48:31;16.10;84.80
18365;DHT22;9309;52.126;11.616;2022-09-13T06:50:59;16.00;85.80
18365;DHT22;9309;52.126;11.616;2022-09-13T06:53:26;16.10;85.80
18365;DHT22;9309;52.126;11.616;2022-09-13T06:56:01;16.40;85.10
18365;DHT22;9309;52.126;11.616;2022-09-13T06:58:29;16.20;84.90
18365;DHT22;9309;52.126;11.616;2022-09-13T07:01:09;16.20;85.50
18365;DHT22;9309;52.126;11.616;2022-09-13T07:03:38;16.50;85.60
18365;DHT22;9309;52.126;11.616;2022-09-13T07:06:12;16.70;84.70
18365;DHT22;9309;52.126;11.616;2022-09-13T07:08:40;16.90;83.70
18365;DHT22;9309;52.126;11.616;2022-09-13T07:11:07;17.10;82.90
18365;DHT22;9309;52.126;11.616;2022-09-13T07:13:35;17.20;83.20
18365;DHT22;9309;52.126;11.616;2022-09-13T07:16:05;17.30;82.90
18365;DHT22;9309;52.126;11.616;2022-09-13T07:18:32;17.40;82.70
18365;DHT22;9309;52.126;11.616;2022-09-13T07:21:00;17.40;82.50
18365;DHT22;9309;52.126;11.616;2022-09-13T07:23:30;17.20;82.90
18365;DHT22;9309;52.126;11.616;2022-09-13T07:25:57;17.40;82.70
18365;DHT22;9309;52.126;11.616;2022-09-13T07:28:31;17.70;81.20
18365;DHT22;9309;52.126;11.616;2022-09-13T07:31:06;17.90;80.60
18365;DHT22;9309;52.126;11.616;2022-09-13T07:33:33;18.10;80.30
18365;DHT22;9309;52.126;11.616;2022-09-13T07:36:00;17.90;78.20
18365;DHT22;9309;52.126;11.616;2022-09-13T07:38:32;17.80;79.30
18365;DHT22;9309;52.126;11.616;2022-09-13T07:40:59;17.90;79.40
18365;DHT22;9309;52.126;11.616;2022-09-13T07:43:26;17.80;79.50
18365;DHT22;9309;52.126;11.616;2022-09-13T07:45:57;17.80;79.90
18365;DHT22;9309;52.126;11.616;2022-09-13T07:48:28;17.80;80.70
18365;DHT22;9309;52.126;11.616;2022-09-13T07:50:59;17.70;80.90
18365;DHT22;9309;52.126;11.616;2022-09-13T07:53:26;17.40;82.40
18365;DHT22;9309;52.126;11.616;2022-09-13T07:55:53;17.40;82.60
18365;DHT22;9309;52.126;11.616;2022-09-13T07:58:25;17.60;81.90
18365;DHT22;9309;52.126;11.616;2022-09-13T08:01:00;17.80;81.30
18365;DHT22;9309;52.126;11.616;2022-09-13T08:03:30;17.70;82.40
18365;DHT22;9309;52.126;11.616;2022-09-13T08:05:57;17.90;81.70
18365;DHT22;9309;52.126;11.616;2022-09-13T08:08:24;18.00;81.20
18365;DHT22;9309;52.126;11.616;2022-09-13T08:10:51;18.20;81.00
18365;DHT22;9309;52.126;11.616;2022-09-13T08:13:19;18.30;81.10
18365;DHT22;9309;52.126;11.616;2022-09-13T08:15:46;18.20;81.00
18365;DHT22;9309;52.126;11.616;2022-09-13T08:18:14;18.20;81.10
18365;DHT22;9309;52.126;11.616;2022-09-13T08:20:43;18.30;79.90
18365;DHT22;9309;52.126;11.616;2022-09-13T08:23:11;18.20;79.90
18365;DHT22;9309;52.126;11.616;2022-09-13T08:25:39;18.40;80.00
18365;DHT22;9309;52.126;11.616;2022-09-13T08:28:06;18.70;79.50
18365;DHT22;9309;52.126;11.616;2022-09-13T08:30:34;19.00;78.60
18365;DHT22;9309;52.126;11.616;2022-09-13T08:33:01;19.40;78.00
18365;DHT22;9309;52.126;11.616;2022-09-13T08:35:28;19.40;75.00
18365;DHT22;9309;52.126;11.616;2022-09-13T08:37:57;19.80;74.10
18365;DHT22;9309;52.126;11.616;2022-09-13T08:40:27;19.80;74.10
18365;DHT22;9309;52.126;11.616;2022-09-13T08:42:58;20.00;73.80
18365;DHT22;9309;52.126;11.616;2022-09-13T08:45:28;20.10;73.60
18365;DHT22;9309;52.126;11.616;2022-09-13T08:47:57;20.20;72.30
18365;DHT22;9309;52.126;11.616;2022-09-13T08:50:26;20.10;73.60
18365;DHT22;9309;52.126;11.616;2022-09-13T08:53:04;20.40;73.10
18365;DHT22;9309;52.126;11.616;2022-09-13T08:55:39;20.30;73.70
18365;DHT22;9309;52.126;11.616;2022-09-13T08:58:23;20.40;70.40
18365;DHT22;9309;52.126;11.616;2022-09-13T09:01:01;20.30;72.00
18365;DHT22;9309;52.126;11.616;2022-09-13T09:03:37;20.30;70.60
18365;DHT22;9309;52.126;11.616;2022-09-13T09:06:11;20.50;70.30
18365;DHT22;9309;52.126;11.616;2022-09-13T09:08:43;20.60;71.80
18365;DHT22;9309;52.126;11.616;2022-09-13T09:11:19;20.60;69.80
18365;DHT22;9309;52.126;11.616;2022-09-13T09:13:51;20.60;69.50
18365;DHT22;9309;52.126;11.616;2022-09-13T09:16:28;20.40;67.90
18365;DHT22;9309;52.126;11.616;2022-09-13T09:19:06;20.20;66.30
18365;DHT22;9309;52.126;11.616;2022-09-13T09:21:37;20.30;67.90
18365;DHT22;9309;52.126;11.616;2022-09-13T09:24:08;20.70;68.50
18365;DHT22;9309;52.126;11.616;2022-09-13T09:26:41;20.70;65.70
18365;DHT22;9309;52.126;11.616;2022-09-13T09:29:15;21.10;67.50
18365;DHT22;9309;52.126;11.616;2022-09-13T09:31:47;21.20;63.40
18365;DHT22;9309;52.126;11.616;2022-09-13T09:34:26;21.30;63.10
18365;DHT22;9309;52.126;11.616;2022-09-13T09:37:06;21.60;62.90
18365;DHT22;9309;52.126;11.616;2022-09-13T09:39:37;21.70;61.00
18365;DHT22;9309;52.126;11.616;2022-09-13T09:42:11;21.40;61.60
18365;DHT22;9309;52.126;11.616;2022-09-13T09:44:39;21.30;62.50
18365;DHT22;9309;52.126;11.616;2022-09-13T09:47:13;21.00;63.20
18365;DHT22;9309;52.126;11.616;2022-09-13T09:49:44;21.00;64.20
18365;DHT22;9309;52.126;11.616;2022-09-13T09:52:32;21.30;65.00
18365;DHT22;9309;52.126;11.616;2022-09-13T09:55:15;21.20;64.00
18365;DHT22;9309;52.126;11.616;2022-09-13T09:57:49;21.20;61.60
18365;DHT22;9309;52.126;11.616;2022-09-13T10:00:18;21.20;62.30
18365;DHT22;9309;52.126;11.616;2022-09-13T10:02:46;21.20;60.60
18365;DHT22;9309;52.126;11.616;2022-09-13T10:05:18;21.00;62.20
18365;DHT22;9309;52.126;11.616;2022-09-13T10:07:52;20.80;63.50
18365;DHT22;9309;52.126;11.616;2022-09-13T10:10:25;20.50;62.80
18365;DHT22;9309;52.126;11.616;2022-09-13T10:12:54;20.30;63.70
18365;DHT22;9309;52.126;11.616;2022-09-13T10:15:23;20.00;64.80
18365;DHT22;9309;52.126;11.616;2022-09-13T10:18:04;20.00;66.40
18365;DHT22;9309;52.126;11.616;2022-09-13T10:20:33;20.00;66.30
18365;DHT22;9309;52.126;11.616;2022-09-13T10:23:16;20.60;64.90
18365;DHT22;9309;52.126;11.616;2022-09-13T10:25:55;21.20;62.20
18365;DHT22;9309;52.126;11.616;2022-09-13T10:28:23;21.70;61.10
18365;DHT22;9309;52.126;11.616;2022-09-13T10:30:54;22.00;61.10
18365;DHT22;9309;52.126;11.616;2022-09-13T10:33:26;22.00;58.60
18365;DHT22;9309;52.126;11.616;2022-09-13T10:35:56;22.10;58.80
18365;DHT22;9309;52.126;11.616;2022-09-13T10:38:27;22.40;59.80
18365;DHT22;9309;52.126;11.616;2022-09-13T10:40:57;22.50;60.10
18365;DHT22;9309;52.126;11.616;2022-09-13T10:43:27;22.90;57.30
18365;DHT22;9309;52.126;11.616;2022-09-13T10:45:55;23.40;57.50
18365;DHT22;9309;52.126;11.616;2022-09-13T10:48:22;23.70;57.10
18365;DHT22;9309;52.126;11.616;2022-09-13T10:51:04;23.50;55.20
18365;DHT22;9309;52.126;11.616;2022-09-13T10:53:37;23.30;56.80
18365;DHT22;9309;52.126;11.616;2022-09-13T10:56:19;23.70;54.10
18365;DHT22;9309;52.126;11.616;2022-09-13T10:58:46;24.20;53.40
18365;DHT22;9309;52.126;11.616;2022-09-13T11:01:35;24.10;54.40
18365;DHT22;9309;52.126;11.616;2022-09-13T11:07:22;23.20;55.30
18365;DHT22;9309;52.126;11.616;2022-09-13T11:09:55;22.80;57.50
18365;DHT22;9309;52.126;11.616;2022-09-13T11:12:30;22.90;57.00
18365;DHT22;9309;52.126;11.616;2022-09-13T11:15:05;22.90;58.00
18365;DHT22;9309;52.126;11.616;2022-09-13T11:17:58;22.90;58.40
18365;DHT22;9309;52.126;11.616;2022-09-13T11:20:35;24.00;56.10
18365;DHT22;9309;52.126;11.616;2022-09-13T11:23:29;25.20;52.90
18365;DHT22;9309;52.126;11.616;2022-09-13T11:26:13;25.60;51.00
18365;DHT22;9309;52.126;11.616;2022-09-13T11:28:52;25.10;51.50
18365;DHT22;9309;52.126;11.616;2022-09-13T11:31:34;24.30;53.70
18365;DHT22;9309;52.126;11.616;2022-09-13T11:34:14;24.00;54.80
18365;DHT22;9309;52.126;11.616;2022-09-13T11:37:08;23.90;56.20
18365;DHT22;9309;52.126;11.616;2022-09-13T11:39:45;23.90;55.60
18365;DHT22;9309;52.126;11.616;2022-09-13T11:42:25;24.10;55.00
18365;DHT22;9309;52.126;11.616;2022-09-13T11:45:24;23.50;56.70
18365;DHT22;9309;52.126;11.616;2022-09-13T11:48:06;23.10;58.40
18365;DHT22;9309;52.126;11.616;2022-09-13T11:50:46;23.00;58.60
18365;DHT22;9309;52.126;11.616;2022-09-13T11:53:41;23.00;57.50
18365;DHT22;9309;52.126;11.616;2022-09-13T11:56:12;23.80;55.60
18365;DHT22;9309;52.126;11.616;2022-09-13T11:58:45;24.40;53.00
18365;DHT22;9309;52.126;11.616;2022-09-13T12:01:20;24.10;53.30
18365;DHT22;9309;52.126;11.616;2022-09-13T12:03:50;24.30;52.70
18365;DHT22;9309;52.126;11.616;2022-09-13T12:06:23;24.40;52.90
18365;DHT22;9309;52.126;11.616;2022-09-13T12:08:55;23.90;53.90
18365;DHT22;9309;52.126;11.616;2022-09-13T12:11:25;23.50;55.60
18365;DHT22;9309;52.126;11.616;2022-09-13T12:14:01;23.30;56.20
18365;DHT22;9309;52.126;11.616;2022-09-13T12:16:35;22.60;58.30
18365;DHT22;9309;52.126;11.616;2022-09-13T12:19:12;22.20;60.50
18365;DHT22;9309;52.126;11.616;2022-09-13T12:21:46;22.10;61.60
18365;DHT22;9309;52.126;11.616;2022-09-13T12:24:17;22.20;61.40
18365;DHT22;9309;52.126;11.616;2022-09-13T12:26:49;22.50;60.30
18365;DHT22;9309;52.126;11.616;2022-09-13T12:29:23;22.70;59.20
18365;DHT22;9309;52.126;11.616;2022-09-13T12:31:57;22.60;59.40
18365;DHT22;9309;52.126;11.616;2022-09-13T12:34:27;22.30;59.80
18365;DHT22;9309;52.126;11.616;2022-09-13T12:37:10;22.30;60.40
18365;DHT22;9309;52.126;11.616;2022-09-13T12:39:57;22.30;61.40
18365;DHT22;9309;52.126;11.616;2022-09-13T12:45:40;22.20;63.30
18365;DHT22;9309;52.126;11.616;2022-09-13T12:51:30;22.70;62.40
18365;DHT22;9309;52.126;11.616;2022-09-13T12:54:20;23.10;61.30
18365;DHT22;9309;52.126;11.616;2022-09-13T12:57:06;23.10;60.80
18365;DHT22;9309;52.126;11.616;2022-09-13T12:59:47;23.40;60.90
18365;DHT22;9309;52.126;11.616;2022-09-13T13:02:27;23.10;60.50
18365;DHT22;9309;52.126;11.616;2022-09-13T13:05:00;23.10;59.10
18365;DHT22;9309;52.126;11.616;2022-09-13T13:07:29;23.00;59.50
18365;DHT22;9309;52.126;11.616;2022-09-13T13:09:57;22.80;60.40
18365;DHT22;9309;52.126;11.616;2022-09-13T13:12:28;22.70;60.60
18365;DHT22;9309;52.126;11.616;2022-09-13T13:14:56;22.70;61.30
18365;DHT22;9309;52.126;11.616;2022-09-13T13:17:39;23.10;59.60
18365;DHT22;9309;52.126;11.616;2022-09-13T13:20:46;23.90;57.30
18365;DHT22;9309;52.126;11.616;2022-09-13T13:23:24;24.10;56.10
18365;DHT22;9309;52.126;11.616;2022-09-13T13:26:02;24.10;56.00
18365;DHT22;9309;52.126;11.616;2022-09-13T13:28:50;23.40;58.20
18365;DHT22;9309;52.126;11.616;2022-09-13T13:31:34;23.00;59.30
18365;DHT22;9309;52.126;11.616;2022-09-13T13:34:29;22.50;60.80
18365;DHT22;9309;52.126;11.616;2022-09-13T13:37:01;22.10;61.60
18365;DHT22;9309;52.126;11.616;2022-09-13T13:39:47;21.90;62.60
18365;DHT22;9309;52.126;11.616;2022-09-13T13:42:25;22.00;62.20
18365;DHT22;9309;52.126;11.616;2022-09-13T13:45:05;22.00;62.60
18365;DHT22;9309;52.126;11.616;2022-09-13T13:47:54;22.00;62.90
18365;DHT22;9309;52.126;11.616;2022-09-13T13:50:33;22.10;63.40
18365;DHT22;9309;52.126;11.616;2022-09-13T13:53:21;21.90;63.80
18365;DHT22;9309;52.126;11.616;2022-09-13T13:56:06;22.00;62.90
18365;DHT22;9309;52.126;11.616;2022-09-13T13:58:43;22.10;63.70
18365;DHT22;9309;52.126;11.616;2022-09-13T14:01:16;22.30;62.00
18365;DHT22;9309;52.126;11.616;2022-09-13T14:03:54;22.70;61.00
18365;DHT22;9309;52.126;11.616;2022-09-13T14:06:31;22.90;60.40
18365;DHT22;9309;52.126;11.616;2022-09-13T14:09:11;23.20;59.60
18365;DHT22;9309;52.126;11.616;2022-09-13T14:11:52;23.50;58.60
18365;DHT22;9309;52.126;11.616;2022-09-13T14:14:37;23.20;58.30
18365;DHT22;9309;52.126;11.616;2022-09-13T14:17:28;23.00;60.20
18365;DHT22;9309;52.126;11.616;2022-09-13T14:20:02;23.00;60.60
18365;DHT22;9309;52.126;11.616;2022-09-13T14:22:30;22.70;61.10
18365;DHT22;9309;52.126;11.616;2022-09-13T14:25:15;22.60;61.70
18365;DHT22;9309;52.126;11.616;2022-09-13T14:27:48;22.50;62.00
18365;DHT22;9309;52.126;11.616;2022-09-13T14:30:19;22.20;62.70
18365;DHT22;9309;52.126;11.616;2022-09-13T14:32:50;22.10;63.80
18365;DHT22;9309;52.126;11.616;2022-09-13T14:35:26;21.90;64.30
18365;DHT22;9309;52.126;11.616;2022-09-13T14:37:53;21.80;64.90
18365;DHT22;9309;52.126;11.616;2022-09-13T14:40:24;21.70;65.20
18365;DHT22;9309;52.126;11.616;2022-09-13T14:42:53;21.70;65.60
18365;DHT22;9309;52.126;11.616;2022-09-13T14:45:23;21.90;64.20
18365;DHT22;9309;52.126;11.616;2022-09-13T14:47:56;22.00;64.20
18365;DHT22;9309;52.126;11.616;2022-09-13T14:50:26;22.00;63.70
18365;DHT22;9309;52.126;11.616;2022-09-13T14:52:56;22.00;64.70
18365;DHT22;9309;52.126;11.616;2022-09-13T14:55:29;22.00;65.20
18365;DHT22;9309;52.126;11.616;2022-09-13T14:57:59;22.20;63.10
18365;DHT22;9309;52.126;11.616;2022-09-13T15:00:30;22.00;64.10
18365;DHT22;9309;52.126;11.616;2022-09-13T15:03:01;22.00;64.20
18365;DHT22;9309;52.126;11.616;2022-09-13T15:05:31;22.00;63.70
18365;DHT22;9309;52.126;11.616;2022-09-13T15:07:59;22.00;64.10
18365;DHT22;9309;52.126;11.616;2022-09-13T15:10:28;21.90;64.40
18365;DHT22;9309;52.126;11.616;2022-09-13T15:13:07;21.90;64.40
18365;DHT22;9309;52.126;11.616;2022-09-13T15:15:36;21.70;65.10
18365;DHT22;9309;52.126;11.616;2022-09-13T15:18:05;21.90;64.90
18365;DHT22;9309;52.126;11.616;2022-09-13T15:20:46;22.00;64.50
18365;DHT22;9309;52.126;11.616;2022-09-13T15:23:19;21.90;64.70
18365;DHT22;9309;52.126;11.616;2022-09-13T15:25:50;21.80;65.20
18365;DHT22;9309;52.126;11.616;2022-09-13T15:28:21;21.70;65.90
18365;DHT22;9309;52.126;11.616;2022-09-13T15:30:49;21.60;66.00
18365;DHT22;9309;52.126;11.616;2022-09-13T15:33:22;21.60;65.30
18365;DHT22;9309;52.126;11.616;2022-09-13T15:35:49;21.80;65.00
18365;DHT22;9309;52.126;11.616;2022-09-13T15:38:22;21.80;65.10
18365;DHT22;9309;52.126;11.616;2022-09-13T15:41:15;21.80;65.30
18365;DHT22;9309;52.126;11.616;2022-09-13T15:43:43;21.80;65.30
18365;DHT22;9309;52.126;11.616;2022-09-13T15:46:15;21.80;65.60
18365;DHT22;9309;52.126;11.616;2022-09-13T15:48:50;21.90;65.20
18365;DHT22;9309;52.126;11.616;2022-09-13T15:51:18;21.80;65.50
18365;DHT22;9309;52.126;11.616;2022-09-13T15:53:45;21.60;65.90
18365;DHT22;9309;52.126;11.616;2022-09-13T15:56:16;21.60;66.10
18365;DHT22;9309;52.126;11.616;2022-09-13T15:58:43;21.40;66.90
18365;DHT22;9309;52.126;11.616;2022-09-13T16:01:11;21.30;67.70
18365;DHT22;9309;52.126;11.616;2022-09-13T16:03:39;21.50;67.10
18365;DHT22;9309;52.126;11.616;2022-09-13T16:06:06;21.30;67.90
18365;DHT22;9309;52.126;11.616;2022-09-13T16:08:35;21.20;67.60
18365;DHT22;9309;52.126;11.616;2022-09-13T16:11:03;21.20;66.80
18365;DHT22;9309;52.126;11.616;2022-09-13T16:13:32;21.10;67.40
18365;DHT22;9309;52.126;11.616;2022-09-13T16:15:59;20.90;68.50